HLA weather

Lanseria Airport
Johannesburg, Gauteng, South Africa

Public forecast

Using degrees Celsius for public forecast. Weather courtesy of forecast.io.

Current aviation weather report (METAR) for Lanseria Airport

Retrieved 2019/11/16 23:00 UTC (20 minutes ago):

FALA 162300Z AUTO 21005KT 180V240 //// // ////// 16/10 Q1013

Aviation forecast (TAF) for Lanseria Airport

Retrieved 2019/11/16 18:12 UTC (5 hours ago):

TAF TAF FALA 161600Z 1618/1718 VRB03KT CAVOK TX31/1712Z TN14/1703Z BECMG 1706/1708 34013KT BECMG 1716/1718 VRB03KT